sensor_id;sensor_type;location;lat;lon;timestamp;P1;durP1;ratioP1;P2;durP2;ratioP2
71810;SDS011;59657;0.000;0.000;2022-10-16T00:00:40;4.13;;;3.83;;
71810;SDS011;59657;0.000;0.000;2022-10-16T00:03:07;4.38;;;4.07;;
71810;SDS011;59657;0.000;0.000;2022-10-16T00:05:38;4.18;;;3.88;;
71810;SDS011;59657;0.000;0.000;2022-10-16T00:08:04;3.60;;;3.40;;
71810;SDS011;59657;0.000;0.000;2022-10-16T00:10:31;2.90;;;2.70;;
71810;SDS011;59657;0.000;0.000;2022-10-16T00:12:57;3.97;;;3.78;;
71810;SDS011;59657;0.000;0.000;2022-10-16T00:15:24;3.72;;;3.50;;
71810;SDS011;59657;0.000;0.000;2022-10-16T00:17:50;3.95;;;3.65;;
71810;SDS011;59657;0.000;0.000;2022-10-16T00:20:17;3.97;;;3.67;;
71810;SDS011;59657;0.000;0.000;2022-10-16T00:22:43;3.22;;;2.92;;
71810;SDS011;59657;0.000;0.000;2022-10-16T00:25:10;3.97;;;3.75;;
71810;SDS011;59657;0.000;0.000;2022-10-16T00:27:36;4.00;;;3.70;;
71810;SDS011;59657;0.000;0.000;2022-10-16T00:30:03;3.97;;;3.67;;
71810;SDS011;59657;0.000;0.000;2022-10-16T00:32:30;3.75;;;3.53;;
71810;SDS011;59657;0.000;0.000;2022-10-16T00:34:56;2.92;;;2.72;;
71810;SDS011;59657;0.000;0.000;2022-10-16T00:37:23;4.07;;;3.78;;
71810;SDS011;59657;0.000;0.000;2022-10-16T00:39:49;4.22;;;3.92;;
71810;SDS011;59657;0.000;0.000;2022-10-16T00:42:16;4.15;;;3.85;;
71810;SDS011;59657;0.000;0.000;2022-10-16T00:44:44;4.30;;;4.00;;
71810;SDS011;59657;0.000;0.000;2022-10-16T00:47:13;3.97;;;3.58;;
71810;SDS011;59657;0.000;0.000;2022-10-16T00:49:41;3.83;;;3.63;;
71810;SDS011;59657;0.000;0.000;2022-10-16T00:52:08;3.75;;;3.45;;
71810;SDS011;59657;0.000;0.000;2022-10-16T00:54:36;3.10;;;2.90;;
71810;SDS011;59657;0.000;0.000;2022-10-16T00:57:04;3.30;;;3.00;;
71810;SDS011;59657;0.000;0.000;2022-10-16T00:59:32;4.07;;;3.78;;
71810;SDS011;59657;0.000;0.000;2022-10-16T01:01:59;3.60;;;3.40;;
71810;SDS011;59657;0.000;0.000;2022-10-16T01:04:26;4.10;;;3.80;;
71810;SDS011;59657;0.000;0.000;2022-10-16T01:09:37;4.40;;;4.10;;
71810;SDS011;59657;0.000;0.000;2022-10-16T01:12:12;4.00;;;3.70;;
71810;SDS011;59657;0.000;0.000;2022-10-16T01:14:47;4.68;;;4.25;;
71810;SDS011;59657;0.000;0.000;2022-10-16T01:17:17;3.97;;;3.70;;
71810;SDS011;59657;0.000;0.000;2022-10-16T01:22:33;3.90;;;3.60;;
71810;SDS011;59657;0.000;0.000;2022-10-16T01:25:03;4.97;;;4.57;;
71810;SDS011;59657;0.000;0.000;2022-10-16T01:27:31;4.28;;;3.88;;
71810;SDS011;59657;0.000;0.000;2022-10-16T01:35:27;4.28;;;3.97;;
71810;SDS011;59657;0.000;0.000;2022-10-16T01:38:03;4.35;;;3.97;;
71810;SDS011;59657;0.000;0.000;2022-10-16T01:40:30;4.45;;;4.10;;
71810;SDS011;59657;0.000;0.000;2022-10-16T01:42:59;4.90;;;4.50;;
71810;SDS011;59657;0.000;0.000;2022-10-16T01:45:26;4.35;;;4.05;;
71810;SDS011;59657;0.000;0.000;2022-10-16T01:47:54;4.65;;;4.32;;
71810;SDS011;59657;0.000;0.000;2022-10-16T01:50:21;4.43;;;4.03;;
71810;SDS011;59657;0.000;0.000;2022-10-16T01:52:48;4.57;;;4.25;;
71810;SDS011;59657;0.000;0.000;2022-10-16T01:55:19;3.97;;;3.67;;
71810;SDS011;59657;0.000;0.000;2022-10-16T01:57:48;4.28;;;3.97;;
71810;SDS011;59657;0.000;0.000;2022-10-16T02:00:17;4.53;;;4.20;;
71810;SDS011;59657;0.000;0.000;2022-10-16T02:02:46;4.60;;;4.20;;
71810;SDS011;59657;0.000;0.000;2022-10-16T02:05:18;4.40;;;4.07;;
71810;SDS011;59657;0.000;0.000;2022-10-16T02:07:47;4.47;;;4.18;;
71810;SDS011;59657;0.000;0.000;2022-10-16T02:10:13;4.50;;;4.20;;
71810;SDS011;59657;0.000;0.000;2022-10-16T02:12:41;4.43;;;4.07;;
71810;SDS011;59657;0.000;0.000;2022-10-16T02:15:08;4.20;;;3.90;;
71810;SDS011;59657;0.000;0.000;2022-10-16T02:17:35;4.72;;;4.35;;
71810;SDS011;59657;0.000;0.000;2022-10-16T02:20:01;4.75;;;4.35;;
71810;SDS011;59657;0.000;0.000;2022-10-16T02:22:30;4.65;;;4.35;;
71810;SDS011;59657;0.000;0.000;2022-10-16T02:25:03;4.63;;;4.25;;
71810;SDS011;59657;0.000;0.000;2022-10-16T02:27:35;4.25;;;4.03;;
71810;SDS011;59657;0.000;0.000;2022-10-16T02:30:07;4.47;;;4.18;;
71810;SDS011;59657;0.000;0.000;2022-10-16T02:32:36;4.78;;;4.38;;
71810;SDS011;59657;0.000;0.000;2022-10-16T02:35:03;4.22;;;3.92;;
71810;SDS011;59657;0.000;0.000;2022-10-16T02:37:30;4.43;;;4.13;;
71810;SDS011;59657;0.000;0.000;2022-10-16T02:39:57;4.75;;;4.35;;
71810;SDS011;59657;0.000;0.000;2022-10-16T02:42:28;4.35;;;4.05;;
71810;SDS011;59657;0.000;0.000;2022-10-16T02:44:55;4.60;;;4.30;;
71810;SDS011;59657;0.000;0.000;2022-10-16T02:47:21;3.90;;;3.70;;
71810;SDS011;59657;0.000;0.000;2022-10-16T02:49:48;4.38;;;3.55;;
71810;SDS011;59657;0.000;0.000;2022-10-16T02:52:14;4.68;;;4.28;;
71810;SDS011;59657;0.000;0.000;2022-10-16T02:54:41;4.63;;;4.32;;
71810;SDS011;59657;0.000;0.000;2022-10-16T02:57:07;4.18;;;3.88;;
71810;SDS011;59657;0.000;0.000;2022-10-16T02:59:34;4.85;;;4.45;;
71810;SDS011;59657;0.000;0.000;2022-10-16T03:02:00;4.53;;;4.13;;
71810;SDS011;59657;0.000;0.000;2022-10-16T03:04:27;5.32;;;4.93;;
71810;SDS011;59657;0.000;0.000;2022-10-16T03:06:54;5.07;;;4.57;;
71810;SDS011;59657;0.000;0.000;2022-10-16T03:09:21;4.38;;;4.05;;
71810;SDS011;59657;0.000;0.000;2022-10-16T03:11:47;4.65;;;4.25;;
71810;SDS011;59657;0.000;0.000;2022-10-16T03:14:14;4.53;;;4.22;;
71810;SDS011;59657;0.000;0.000;2022-10-16T03:16:40;5.00;;;4.60;;
71810;SDS011;59657;0.000;0.000;2022-10-16T03:19:07;4.82;;;4.43;;
71810;SDS011;59657;0.000;0.000;2022-10-16T03:21:33;4.53;;;4.22;;
71810;SDS011;59657;0.000;0.000;2022-10-16T03:24:00;4.88;;;4.47;;
71810;SDS011;59657;0.000;0.000;2022-10-16T03:26:27;4.93;;;4.53;;
71810;SDS011;59657;0.000;0.000;2022-10-16T03:28:53;4.10;;;3.80;;
71810;SDS011;59657;0.000;0.000;2022-10-16T03:31:20;4.68;;;4.38;;
71810;SDS011;59657;0.000;0.000;2022-10-16T03:33:47;5.10;;;4.70;;
71810;SDS011;59657;0.000;0.000;2022-10-16T03:36:14;4.55;;;4.15;;
71810;SDS011;59657;0.000;0.000;2022-10-16T03:38:40;4.05;;;3.75;;
71810;SDS011;59657;0.000;0.000;2022-10-16T03:41:07;4.75;;;4.35;;
71810;SDS011;59657;0.000;0.000;2022-10-16T03:43:33;4.65;;;4.25;;
71810;SDS011;59657;0.000;0.000;2022-10-16T03:46:00;4.47;;;4.07;;
71810;SDS011;59657;0.000;0.000;2022-10-16T03:48:26;4.28;;;3.97;;
71810;SDS011;59657;0.000;0.000;2022-10-16T03:50:53;4.40;;;4.10;;
71810;SDS011;59657;0.000;0.000;2022-10-16T03:53:20;4.45;;;4.15;;
71810;SDS011;59657;0.000;0.000;2022-10-16T03:55:46;4.90;;;4.50;;
71810;SDS011;59657;0.000;0.000;2022-10-16T03:58:13;5.13;;;4.63;;
71810;SDS011;59657;0.000;0.000;2022-10-16T04:00:40;4.82;;;4.53;;
71810;SDS011;59657;0.000;0.000;2022-10-16T04:03:07;5.03;;;4.63;;
71810;SDS011;59657;0.000;0.000;2022-10-16T04:05:33;4.68;;;4.28;;
71810;SDS011;59657;0.000;0.000;2022-10-16T04:08:00;4.63;;;4.22;;
71810;SDS011;59657;0.000;0.000;2022-10-16T04:10:26;3.65;;;3.35;;
71810;SDS011;59657;0.000;0.000;2022-10-16T04:12:53;4.90;;;4.50;;
71810;SDS011;59657;0.000;0.000;2022-10-16T04:15:21;4.57;;;4.28;;
71810;SDS011;59657;0.000;0.000;2022-10-16T04:17:48;4.78;;;4.38;;
71810;SDS011;59657;0.000;0.000;2022-10-16T04:20:14;4.85;;;4.45;;
71810;SDS011;59657;0.000;0.000;2022-10-16T04:25:17;3.90;;;3.60;;
71810;SDS011;59657;0.000;0.000;2022-10-16T04:27:43;4.60;;;4.20;;
71810;SDS011;59657;0.000;0.000;2022-10-16T04:30:10;4.65;;;4.30;;
71810;SDS011;59657;0.000;0.000;2022-10-16T04:32:37;4.38;;;4.03;;
71810;SDS011;59657;0.000;0.000;2022-10-16T04:35:03;4.20;;;3.90;;
71810;SDS011;59657;0.000;0.000;2022-10-16T04:37:30;4.65;;;4.28;;
71810;SDS011;59657;0.000;0.000;2022-10-16T04:39:56;4.55;;;4.15;;
71810;SDS011;59657;0.000;0.000;2022-10-16T04:42:23;4.95;;;4.55;;
71810;SDS011;59657;0.000;0.000;2022-10-16T04:44:49;4.40;;;4.10;;
71810;SDS011;59657;0.000;0.000;2022-10-16T04:47:16;4.43;;;4.13;;
71810;SDS011;59657;0.000;0.000;2022-10-16T04:49:42;4.72;;;4.30;;
71810;SDS011;59657;0.000;0.000;2022-10-16T04:52:09;4.57;;;4.20;;
71810;SDS011;59657;0.000;0.000;2022-10-16T04:54:35;4.57;;;4.20;;
71810;SDS011;59657;0.000;0.000;2022-10-16T04:57:01;3.47;;;3.17;;
71810;SDS011;59657;0.000;0.000;2022-10-16T04:59:30;4.55;;;4.15;;
71810;SDS011;59657;0.000;0.000;2022-10-16T05:01:56;4.38;;;4.07;;
71810;SDS011;59657;0.000;0.000;2022-10-16T05:04:23;4.50;;;4.20;;
71810;SDS011;59657;0.000;0.000;2022-10-16T05:06:49;4.65;;;4.25;;
71810;SDS011;59657;0.000;0.000;2022-10-16T05:09:16;4.38;;;4.07;;
71810;SDS011;59657;0.000;0.000;2022-10-16T05:11:42;4.05;;;3.72;;
71810;SDS011;59657;0.000;0.000;2022-10-16T05:14:09;4.57;;;4.28;;
71810;SDS011;59657;0.000;0.000;2022-10-16T05:16:35;4.07;;;3.78;;
71810;SDS011;59657;0.000;0.000;2022-10-16T05:19:02;4.38;;;4.07;;
71810;SDS011;59657;0.000;0.000;2022-10-16T05:21:28;3.78;;;3.47;;
71810;SDS011;59657;0.000;0.000;2022-10-16T05:23:55;5.00;;;4.60;;
71810;SDS011;59657;0.000;0.000;2022-10-16T05:26:21;4.53;;;4.22;;
71810;SDS011;59657;0.000;0.000;2022-10-16T05:28:49;4.35;;;4.05;;
71810;SDS011;59657;0.000;0.000;2022-10-16T05:31:15;4.43;;;4.10;;
71810;SDS011;59657;0.000;0.000;2022-10-16T05:33:42;3.80;;;3.42;;
71810;SDS011;59657;0.000;0.000;2022-10-16T05:36:09;3.70;;;3.40;;
71810;SDS011;59657;0.000;0.000;2022-10-16T05:38:36;4.47;;;4.18;;
71810;SDS011;59657;0.000;0.000;2022-10-16T05:41:03;4.13;;;3.83;;
71810;SDS011;59657;0.000;0.000;2022-10-16T05:43:30;4.43;;;4.13;;
71810;SDS011;59657;0.000;0.000;2022-10-16T05:45:58;4.20;;;3.90;;
71810;SDS011;59657;0.000;0.000;2022-10-16T05:48:25;4.30;;;4.00;;
71810;SDS011;59657;0.000;0.000;2022-10-16T05:51:08;3.55;;;3.35;;
71810;SDS011;59657;0.000;0.000;2022-10-16T05:53:36;4.03;;;3.72;;
71810;SDS011;59657;0.000;0.000;2022-10-16T05:56:03;4.70;;;4.40;;
71810;SDS011;59657;0.000;0.000;2022-10-16T05:58:31;4.30;;;4.00;;
71810;SDS011;59657;0.000;0.000;2022-10-16T06:00:59;3.40;;;3.10;;
71810;SDS011;59657;0.000;0.000;2022-10-16T06:03:26;4.05;;;3.75;;
71810;SDS011;59657;0.000;0.000;2022-10-16T06:05:53;3.97;;;3.67;;
71810;SDS011;59657;0.000;0.000;2022-10-16T06:08:20;4.13;;;3.83;;
71810;SDS011;59657;0.000;0.000;2022-10-16T06:10:47;3.97;;;3.78;;
71810;SDS011;59657;0.000;0.000;2022-10-16T06:13:14;4.25;;;3.95;;
71810;SDS011;59657;0.000;0.000;2022-10-16T06:15:41;4.25;;;3.95;;
71810;SDS011;59657;0.000;0.000;2022-10-16T06:18:09;4.50;;;4.20;;
71810;SDS011;59657;0.000;0.000;2022-10-16T06:20:36;4.15;;;3.85;;
71810;SDS011;59657;0.000;0.000;2022-10-16T06:23:03;4.03;;;3.83;;
71810;SDS011;59657;0.000;0.000;2022-10-16T06:25:31;4.57;;;4.28;;
71810;SDS011;59657;0.000;0.000;2022-10-16T06:27:57;4.50;;;4.10;;
71810;SDS011;59657;0.000;0.000;2022-10-16T06:30:24;4.60;;;4.20;;
71810;SDS011;59657;0.000;0.000;2022-10-16T06:32:50;4.40;;;4.10;;
71810;SDS011;59657;0.000;0.000;2022-10-16T06:35:17;4.65;;;4.25;;
71810;SDS011;59657;0.000;0.000;2022-10-16T06:37:43;4.65;;;4.25;;
71810;SDS011;59657;0.000;0.000;2022-10-16T06:40:10;4.38;;;4.07;;
71810;SDS011;59657;0.000;0.000;2022-10-16T06:42:36;4.38;;;4.07;;
71810;SDS011;59657;0.000;0.000;2022-10-16T06:45:03;4.95;;;4.55;;
71810;SDS011;59657;0.000;0.000;2022-10-16T06:47:29;3.17;;;2.97;;
71810;SDS011;59657;0.000;0.000;2022-10-16T06:49:56;4.63;;;4.22;;
71810;SDS011;59657;0.000;0.000;2022-10-16T06:52:22;4.88;;;4.47;;
71810;SDS011;59657;0.000;0.000;2022-10-16T06:54:49;5.18;;;4.78;;
71810;SDS011;59657;0.000;0.000;2022-10-16T06:57:16;4.72;;;4.32;;
71810;SDS011;59657;0.000;0.000;2022-10-16T06:59:42;4.75;;;4.38;;
71810;SDS011;59657;0.000;0.000;2022-10-16T07:02:09;4.88;;;4.47;;
71810;SDS011;59657;0.000;0.000;2022-10-16T07:04:35;4.82;;;4.43;;
71810;SDS011;59657;0.000;0.000;2022-10-16T07:07:02;4.47;;;4.07;;
71810;SDS011;59657;0.000;0.000;2022-10-16T07:09:29;4.43;;;4.03;;
71810;SDS011;59657;0.000;0.000;2022-10-16T07:11:55;4.88;;;4.57;;
71810;SDS011;59657;0.000;0.000;2022-10-16T07:14:21;4.60;;;4.20;;
71810;SDS011;59657;0.000;0.000;2022-10-16T07:16:48;4.68;;;4.32;;
71810;SDS011;59657;0.000;0.000;2022-10-16T07:19:15;4.45;;;4.15;;
71810;SDS011;59657;0.000;0.000;2022-10-16T07:21:43;4.40;;;4.00;;
71810;SDS011;59657;0.000;0.000;2022-10-16T07:24:11;3.95;;;3.65;;
71810;SDS011;59657;0.000;0.000;2022-10-16T07:26:38;4.60;;;4.30;;
71810;SDS011;59657;0.000;0.000;2022-10-16T07:29:08;4.68;;;4.32;;
71810;SDS011;59657;0.000;0.000;2022-10-16T07:31:38;4.85;;;4.45;;
71810;SDS011;59657;0.000;0.000;2022-10-16T07:34:05;4.80;;;4.32;;
71810;SDS011;59657;0.000;0.000;2022-10-16T07:36:31;4.07;;;3.78;;
71810;SDS011;59657;0.000;0.000;2022-10-16T07:38:58;4.97;;;4.57;;
71810;SDS011;59657;0.000;0.000;2022-10-16T07:41:24;4.50;;;4.20;;
71810;SDS011;59657;0.000;0.000;2022-10-16T07:43:51;4.75;;;4.35;;
71810;SDS011;59657;0.000;0.000;2022-10-16T07:46:18;4.90;;;4.60;;
71810;SDS011;59657;0.000;0.000;2022-10-16T07:48:46;4.68;;;4.28;;
71810;SDS011;59657;0.000;0.000;2022-10-16T07:51:13;4.72;;;4.30;;
71810;SDS011;59657;0.000;0.000;2022-10-16T07:53:40;4.10;;;3.80;;
71810;SDS011;59657;0.000;0.000;2022-10-16T07:56:07;4.93;;;4.53;;
71810;SDS011;59657;0.000;0.000;2022-10-16T07:58:34;4.53;;;4.22;;
71810;SDS011;59657;0.000;0.000;2022-10-16T08:01:04;4.75;;;4.35;;
71810;SDS011;59657;0.000;0.000;2022-10-16T08:03:31;3.85;;;3.55;;
71810;SDS011;59657;0.000;0.000;2022-10-16T08:05:58;4.75;;;4.35;;
71810;SDS011;59657;0.000;0.000;2022-10-16T08:08:25;4.47;;;4.18;;
71810;SDS011;59657;0.000;0.000;2022-10-16T08:10:52;4.80;;;4.43;;
71810;SDS011;59657;0.000;0.000;2022-10-16T08:13:19;4.32;;;3.92;;
71810;SDS011;59657;0.000;0.000;2022-10-16T08:15:46;4.80;;;4.40;;
71810;SDS011;59657;0.000;0.000;2022-10-16T08:18:13;4.32;;;4.03;;
71810;SDS011;59657;0.000;0.000;2022-10-16T08:20:39;4.32;;;3.88;;
71810;SDS011;59657;0.000;0.000;2022-10-16T08:23:06;4.13;;;3.83;;
71810;SDS011;59657;0.000;0.000;2022-10-16T08:25:34;4.35;;;3.95;;
71810;SDS011;59657;0.000;0.000;2022-10-16T08:28:03;4.57;;;4.28;;
71810;SDS011;59657;0.000;0.000;2022-10-16T08:30:31;4.85;;;4.45;;
71810;SDS011;59657;0.000;0.000;2022-10-16T08:32:57;3.33;;;3.00;;
71810;SDS011;59657;0.000;0.000;2022-10-16T08:35:24;3.65;;;2.90;;
71810;SDS011;59657;0.000;0.000;2022-10-16T08:37:50;4.43;;;4.07;;
71810;SDS011;59657;0.000;0.000;2022-10-16T08:40:25;4.50;;;4.10;;
71810;SDS011;59657;0.000;0.000;2022-10-16T08:43:01;4.90;;;4.50;;
71810;SDS011;59657;0.000;0.000;2022-10-16T08:48:20;4.32;;;4.03;;
71810;SDS011;59657;0.000;0.000;2022-10-16T08:50:51;3.78;;;3.08;;
71810;SDS011;59657;0.000;0.000;2022-10-16T08:53:20;4.32;;;4.03;;
71810;SDS011;59657;0.000;0.000;2022-10-16T08:55:50;4.68;;;4.28;;
71810;SDS011;59657;0.000;0.000;2022-10-16T08:58:17;2.92;;;2.60;;
71810;SDS011;59657;0.000;0.000;2022-10-16T09:00:46;4.38;;;4.07;;
71810;SDS011;59657;0.000;0.000;2022-10-16T09:03:23;4.25;;;3.95;;
71810;SDS011;59657;0.000;0.000;2022-10-16T09:13:43;4.45;;;4.15;;
71810;SDS011;59657;0.000;0.000;2022-10-16T09:16:14;4.13;;;3.78;;
71810;SDS011;59657;0.000;0.000;2022-10-16T09:18:46;4.20;;;3.92;;
71810;SDS011;59657;0.000;0.000;2022-10-16T09:21:18;4.20;;;3.90;;
71810;SDS011;59657;0.000;0.000;2022-10-16T09:23:45;4.50;;;4.10;;
71810;SDS011;59657;0.000;0.000;2022-10-16T09:26:14;4.40;;;4.10;;
71810;SDS011;59657;0.000;0.000;2022-10-16T09:28:41;4.68;;;4.32;;
71810;SDS011;59657;0.000;0.000;2022-10-16T09:31:12;4.35;;;3.70;;
71810;SDS011;59657;0.000;0.000;2022-10-16T09:33:39;4.75;;;4.35;;
71810;SDS011;59657;0.000;0.000;2022-10-16T09:36:08;5.15;;;4.65;;
71810;SDS011;59657;0.000;0.000;2022-10-16T09:38:35;4.43;;;4.07;;
71810;SDS011;59657;0.000;0.000;2022-10-16T09:41:09;4.68;;;4.28;;
71810;SDS011;59657;0.000;0.000;2022-10-16T09:43:40;4.82;;;4.43;;
71810;SDS011;59657;0.000;0.000;2022-10-16T09:46:08;5.07;;;4.68;;
71810;SDS011;59657;0.000;0.000;2022-10-16T09:48:37;3.85;;;3.22;;
71810;SDS011;59657;0.000;0.000;2022-10-16T09:51:06;5.00;;;4.60;;
71810;SDS011;59657;0.000;0.000;2022-10-16T09:53:48;4.43;;;4.13;;
71810;SDS011;59657;0.000;0.000;2022-10-16T09:56:23;4.30;;;3.90;;
71810;SDS011;59657;0.000;0.000;2022-10-16T09:58:51;4.72;;;4.43;;
71810;SDS011;59657;0.000;0.000;2022-10-16T10:01:17;3.85;;;3.65;;
71810;SDS011;59657;0.000;0.000;2022-10-16T10:03:45;4.03;;;3.78;;
71810;SDS011;59657;0.000;0.000;2022-10-16T10:06:17;3.88;;;3.58;;
71810;SDS011;59657;0.000;0.000;2022-10-16T10:09:02;4.13;;;3.83;;
71810;SDS011;59657;0.000;0.000;2022-10-16T10:14:03;4.70;;;4.30;;
71810;SDS011;59657;0.000;0.000;2022-10-16T10:16:30;4.20;;;3.90;;
71810;SDS011;59657;0.000;0.000;2022-10-16T10:18:58;4.15;;;3.85;;
71810;SDS011;59657;0.000;0.000;2022-10-16T10:21:24;4.28;;;3.95;;
71810;SDS011;59657;0.000;0.000;2022-10-16T10:23:58;4.93;;;4.53;;
71810;SDS011;59657;0.000;0.000;2022-10-16T10:26:26;4.18;;;3.88;;
71810;SDS011;59657;0.000;0.000;2022-10-16T10:28:55;4.63;;;4.22;;
71810;SDS011;59657;0.000;0.000;2022-10-16T10:31:58;4.53;;;4.18;;
71810;SDS011;59657;0.000;0.000;2022-10-16T10:36:59;4.60;;;4.30;;
71810;SDS011;59657;0.000;0.000;2022-10-16T10:39:45;4.07;;;3.78;;
71810;SDS011;59657;0.000;0.000;2022-10-16T10:42:29;4.88;;;4.38;;
71810;SDS011;59657;0.000;0.000;2022-10-16T10:45:04;2.95;;;2.75;;
71810;SDS011;59657;0.000;0.000;2022-10-16T10:47:47;4.95;;;4.55;;
71810;SDS011;59657;0.000;0.000;2022-10-16T10:50:22;2.75;;;2.45;;
71810;SDS011;59657;0.000;0.000;2022-10-16T10:52:53;4.15;;;3.85;;
71810;SDS011;59657;0.000;0.000;2022-10-16T10:58:24;4.60;;;4.30;;
71810;SDS011;59657;0.000;0.000;2022-10-16T11:01:09;3.58;;;3.28;;
71810;SDS011;59657;0.000;0.000;2022-10-16T11:03:42;4.88;;;4.38;;
71810;SDS011;59657;0.000;0.000;2022-10-16T11:06:17;4.20;;;3.90;;
71810;SDS011;59657;0.000;0.000;2022-10-16T11:11:33;4.07;;;3.78;;
71810;SDS011;59657;0.000;0.000;2022-10-16T11:16:39;4.65;;;4.35;;
71810;SDS011;59657;0.000;0.000;2022-10-16T11:21:49;4.72;;;4.43;;
71810;SDS011;59657;0.000;0.000;2022-10-16T11:24:23;4.75;;;4.35;;
71810;SDS011;59657;0.000;0.000;2022-10-16T11:26:53;4.63;;;4.22;;
71810;SDS011;59657;0.000;0.000;2022-10-16T11:29:25;5.30;;;4.90;;
71810;SDS011;59657;0.000;0.000;2022-10-16T11:31:53;4.63;;;4.32;;
71810;SDS011;59657;0.000;0.000;2022-10-16T11:34:23;4.80;;;4.40;;
71810;SDS011;59657;0.000;0.000;2022-10-16T11:36:53;4.53;;;4.22;;
71810;SDS011;59657;0.000;0.000;2022-10-16T11:39:24;4.72;;;4.35;;
71810;SDS011;59657;0.000;0.000;2022-10-16T11:41:55;5.47;;;4.97;;
71810;SDS011;59657;0.000;0.000;2022-10-16T11:44:42;4.68;;;4.28;;
71810;SDS011;59657;0.000;0.000;2022-10-16T11:47:24;3.53;;;3.22;;
71810;SDS011;59657;0.000;0.000;2022-10-16T11:49:53;3.65;;;3.33;;
71810;SDS011;59657;0.000;0.000;2022-10-16T11:52:23;4.68;;;4.25;;
71810;SDS011;59657;0.000;0.000;2022-10-16T11:54:54;4.72;;;4.32;;
71810;SDS011;59657;0.000;0.000;2022-10-16T11:57:24;4.88;;;4.47;;
71810;SDS011;59657;0.000;0.000;2022-10-16T11:59:55;4.93;;;4.53;;
71810;SDS011;59657;0.000;0.000;2022-10-16T12:02:28;4.80;;;4.40;;
71810;SDS011;59657;0.000;0.000;2022-10-16T12:05:02;5.18;;;4.68;;
71810;SDS011;59657;0.000;0.000;2022-10-16T12:07:34;4.43;;;4.13;;
71810;SDS011;59657;0.000;0.000;2022-10-16T12:12:47;5.13;;;4.72;;
71810;SDS011;59657;0.000;0.000;2022-10-16T12:15:30;5.20;;;4.80;;
71810;SDS011;59657;0.000;0.000;2022-10-16T12:17:57;6.00;;;5.50;;
71810;SDS011;59657;0.000;0.000;2022-10-16T12:20:28;4.97;;;4.57;;
71810;SDS011;59657;0.000;0.000;2022-10-16T12:22:57;5.47;;;4.97;;
71810;SDS011;59657;0.000;0.000;2022-10-16T12:25:29;5.63;;;5.13;;
71810;SDS011;59657;0.000;0.000;2022-10-16T12:27:57;5.63;;;5.13;;
71810;SDS011;59657;0.000;0.000;2022-10-16T12:30:24;5.32;;;4.82;;
71810;SDS011;59657;0.000;0.000;2022-10-16T12:32:54;6.30;;;5.70;;
71810;SDS011;59657;0.000;0.000;2022-10-16T12:35:21;5.72;;;5.22;;
71810;SDS011;59657;0.000;0.000;2022-10-16T12:37:49;5.78;;;5.20;;
71810;SDS011;59657;0.000;0.000;2022-10-16T12:40:23;5.82;;;5.32;;
71810;SDS011;59657;0.000;0.000;2022-10-16T12:42:51;6.18;;;5.53;;
71810;SDS011;59657;0.000;0.000;2022-10-16T12:47:58;5.97;;;5.38;;
71810;SDS011;59657;0.000;0.000;2022-10-16T12:50:40;5.82;;;5.32;;
71810;SDS011;59657;0.000;0.000;2022-10-16T12:55:51;5.45;;;4.95;;
71810;SDS011;59657;0.000;0.000;2022-10-16T12:58:24;6.10;;;5.50;;
71810;SDS011;59657;0.000;0.000;2022-10-16T13:00:57;6.22;;;5.63;;
71810;SDS011;59657;0.000;0.000;2022-10-16T13:08:58;6.45;;;5.85;;
71810;SDS011;59657;0.000;0.000;2022-10-16T13:14:20;5.78;;;5.28;;
71810;SDS011;59657;0.000;0.000;2022-10-16T13:25:03;5.95;;;5.45;;
71810;SDS011;59657;0.000;0.000;2022-10-16T13:27:41;6.22;;;5.63;;
71810;SDS011;59657;0.000;0.000;2022-10-16T13:30:12;6.70;;;5.97;;
71810;SDS011;59657;0.000;0.000;2022-10-16T13:32:40;6.65;;;6.05;;
71810;SDS011;59657;0.000;0.000;2022-10-16T13:37:47;7.95;;;6.82;;
71810;SDS011;59657;0.000;0.000;2022-10-16T13:40:18;6.85;;;6.15;;
71810;SDS011;59657;0.000;0.000;2022-10-16T13:42:45;7.45;;;6.75;;
71810;SDS011;59657;0.000;0.000;2022-10-16T13:45:27;6.95;;;6.32;;
71810;SDS011;59657;0.000;0.000;2022-10-16T13:48:09;6.55;;;5.35;;
71810;SDS011;59657;0.000;0.000;2022-10-16T13:50:37;7.38;;;6.68;;
71810;SDS011;59657;0.000;0.000;2022-10-16T13:53:05;7.60;;;6.57;;
71810;SDS011;59657;0.000;0.000;2022-10-16T13:55:32;6.38;;;5.78;;
71810;SDS011;59657;0.000;0.000;2022-10-16T14:00:37;7.05;;;6.18;;
71810;SDS011;59657;0.000;0.000;2022-10-16T14:03:07;7.20;;;6.40;;
71810;SDS011;59657;0.000;0.000;2022-10-16T14:05:41;7.20;;;6.50;;
71810;SDS011;59657;0.000;0.000;2022-10-16T14:08:09;7.07;;;6.38;;
71810;SDS011;59657;0.000;0.000;2022-10-16T14:10:37;7.25;;;6.35;;
71810;SDS011;59657;0.000;0.000;2022-10-16T14:13:04;8.23;;;7.25;;
71810;SDS011;59657;0.000;0.000;2022-10-16T14:15:32;6.57;;;5.95;;
71810;SDS011;59657;0.000;0.000;2022-10-16T14:17:59;7.82;;;7.03;;
71810;SDS011;59657;0.000;0.000;2022-10-16T14:20:27;8.30;;;7.10;;
71810;SDS011;59657;0.000;0.000;2022-10-16T14:23:03;7.78;;;6.72;;
71810;SDS011;59657;0.000;0.000;2022-10-16T14:25:31;7.95;;;7.15;;
71810;SDS011;59657;0.000;0.000;2022-10-16T14:28:00;8.32;;;7.47;;
71810;SDS011;59657;0.000;0.000;2022-10-16T14:30:27;8.82;;;7.38;;
71810;SDS011;59657;0.000;0.000;2022-10-16T14:32:57;7.18;;;6.53;;
71810;SDS011;59657;0.000;0.000;2022-10-16T14:35:25;7.30;;;6.60;;
71810;SDS011;59657;0.000;0.000;2022-10-16T14:37:53;7.70;;;6.85;;
71810;SDS011;59657;0.000;0.000;2022-10-16T14:40:20;8.43;;;7.50;;
71810;SDS011;59657;0.000;0.000;2022-10-16T14:42:49;7.22;;;6.53;;
71810;SDS011;59657;0.000;0.000;2022-10-16T14:45:18;7.68;;;6.68;;
71810;SDS011;59657;0.000;0.000;2022-10-16T14:47:47;8.10;;;7.28;;
71810;SDS011;59657;0.000;0.000;2022-10-16T14:50:14;7.75;;;6.63;;
71810;SDS011;59657;0.000;0.000;2022-10-16T14:52:40;8.82;;;7.47;;
71810;SDS011;59657;0.000;0.000;2022-10-16T14:55:09;8.00;;;6.85;;
71810;SDS011;59657;0.000;0.000;2022-10-16T14:57:36;7.30;;;6.60;;
71810;SDS011;59657;0.000;0.000;2022-10-16T15:00:09;7.03;;;6.32;;
71810;SDS011;59657;0.000;0.000;2022-10-16T15:02:36;7.07;;;6.38;;
71810;SDS011;59657;0.000;0.000;2022-10-16T15:07:48;7.43;;;6.25;;
71810;SDS011;59657;0.000;0.000;2022-10-16T15:10:16;7.18;;;5.43;;
71810;SDS011;59657;0.000;0.000;2022-10-16T15:12:43;7.47;;;6.15;;
71810;SDS011;59657;0.000;0.000;2022-10-16T15:15:21;7.13;;;6.40;;
71810;SDS011;59657;0.000;0.000;2022-10-16T15:17:50;6.80;;;6.13;;
71810;SDS011;59657;0.000;0.000;2022-10-16T15:20:19;5.80;;;5.30;;
71810;SDS011;59657;0.000;0.000;2022-10-16T15:22:45;6.00;;;5.45;;
71810;SDS011;59657;0.000;0.000;2022-10-16T15:25:29;5.95;;;5.38;;
71810;SDS011;59657;0.000;0.000;2022-10-16T15:27:57;5.47;;;4.97;;
71810;SDS011;59657;0.000;0.000;2022-10-16T15:30:23;5.07;;;4.68;;
71810;SDS011;59657;0.000;0.000;2022-10-16T15:32:50;5.13;;;4.63;;
71810;SDS011;59657;0.000;0.000;2022-10-16T15:35:17;4.47;;;4.18;;
71810;SDS011;59657;0.000;0.000;2022-10-16T15:37:43;4.80;;;4.40;;
71810;SDS011;59657;0.000;0.000;2022-10-16T15:40:10;4.68;;;4.28;;
71810;SDS011;59657;0.000;0.000;2022-10-16T15:42:37;4.97;;;4.57;;
71810;SDS011;59657;0.000;0.000;2022-10-16T15:45:03;4.85;;;4.45;;
71810;SDS011;59657;0.000;0.000;2022-10-16T15:47:31;4.53;;;4.13;;
71810;SDS011;59657;0.000;0.000;2022-10-16T15:49:58;5.38;;;4.88;;
71810;SDS011;59657;0.000;0.000;2022-10-16T15:52:24;5.03;;;4.60;;
71810;SDS011;59657;0.000;0.000;2022-10-16T15:54:51;4.95;;;4.55;;
71810;SDS011;59657;0.000;0.000;2022-10-16T15:57:17;4.90;;;4.50;;
71810;SDS011;59657;0.000;0.000;2022-10-16T15:59:44;3.97;;;3.67;;
71810;SDS011;59657;0.000;0.000;2022-10-16T16:02:10;4.95;;;4.65;;
71810;SDS011;59657;0.000;0.000;2022-10-16T16:04:37;4.75;;;4.35;;
71810;SDS011;59657;0.000;0.000;2022-10-16T16:07:03;4.60;;;4.30;;
71810;SDS011;59657;0.000;0.000;2022-10-16T16:09:32;5.35;;;4.88;;
71810;SDS011;59657;0.000;0.000;2022-10-16T16:12:00;4.75;;;4.35;;
71810;SDS011;59657;0.000;0.000;2022-10-16T16:14:27;4.85;;;4.43;;
71810;SDS011;59657;0.000;0.000;2022-10-16T16:16:54;5.88;;;5.28;;
71810;SDS011;59657;0.000;0.000;2022-10-16T16:19:21;5.72;;;5.22;;
71810;SDS011;59657;0.000;0.000;2022-10-16T16:21:48;5.55;;;5.05;;